createdAt,value
2023-03-19T00:03:58.352Z,98693.23
2023-03-19T00:14:06.171Z,98696.27
2023-03-19T00:24:13.688Z,98692.80
2023-03-19T00:34:20.962Z,98701.09
2023-03-19T00:44:28.099Z,98701.23
2023-03-19T00:54:36.355Z,98692.41
2023-03-19T01:04:44.038Z,98685.45
2023-03-19T01:14:51.281Z,98693.78
2023-03-19T01:24:58.486Z,98697.39
2023-03-19T01:35:05.303Z,98703.16
2023-03-19T01:45:38.967Z,98703.52
2023-03-19T01:55:47.814Z,98704.08
2023-03-19T02:05:56.579Z,98695.05
2023-03-19T02:16:04.594Z,98695.23
2023-03-19T02:26:13.714Z,98687.63
2023-03-19T02:36:22.914Z,98691.19
2023-03-19T02:46:30.373Z,98688.34
2023-03-19T02:56:36.712Z,98692.44
2023-03-19T03:06:43.785Z,98698.86
2023-03-19T03:16:51.161Z,98700.89
2023-03-19T03:26:58.453Z,98703.66
2023-03-19T03:37:07.011Z,98710.35
2023-03-19T03:47:14.892Z,98714.27
2023-03-19T03:57:21.919Z,98711.77
2023-03-19T04:07:29.290Z,98707.12
2023-03-19T04:17:36.002Z,98706.41
2023-03-19T04:27:43.215Z,98706.98
2023-03-19T04:37:50.369Z,98707.20
2023-03-19T04:47:58.346Z,98702.51
2023-03-19T04:58:06.065Z,98697.17
2023-03-19T05:08:13.786Z,98692.26
2023-03-19T05:18:21.414Z,98689.47
2023-03-19T05:28:28.341Z,98691.45
2023-03-19T05:38:35.456Z,98690.79
2023-03-19T05:48:42.534Z,98697.83
2023-03-19T05:58:49.734Z,98698.04
2023-03-19T06:08:56.633Z,98701.98
2023-03-19T06:19:03.831Z,98703.85
2023-03-19T06:29:11.023Z,98708.86
2023-03-19T06:39:18.421Z,98712.77
2023-03-19T06:49:25.831Z,98720.52
2023-03-19T06:59:33.177Z,98722.91
2023-03-19T07:09:40.839Z,98717.50
2023-03-19T07:19:48.129Z,98719.14
2023-03-19T07:29:54.407Z,98725.14
2023-03-19T07:40:01.817Z,98733.89
2023-03-19T07:50:10.949Z,98724.54
2023-03-19T08:00:18.194Z,98720.30
2023-03-19T08:10:25.700Z,98714.12
2023-03-19T08:20:34.031Z,98708.73
2023-03-19T08:30:41.622Z,98707.91
2023-03-19T08:40:49.287Z,98708.28
2023-03-19T08:50:55.026Z,98706.67
2023-03-19T09:01:01.975Z,98705.52
2023-03-19T09:11:08.353Z,98700.66
2023-03-19T09:21:15.758Z,98701.38
2023-03-19T09:31:22.878Z,98695.80
2023-03-19T09:41:35.421Z,98693.17
2023-03-19T09:51:42.456Z,98693.20
2023-03-19T10:01:50.382Z,98686.80
2023-03-19T10:11:59.740Z,98687.48
2023-03-19T10:22:07.576Z,98677.62
2023-03-19T10:32:15.416Z,98669.12
2023-03-19T10:42:27.336Z,98668.48
2023-03-19T10:52:35.056Z,98659.49
2023-03-19T11:02:48.424Z,98649.26
2023-03-19T11:23:00.455Z,98623.71
2023-03-19T11:33:23.472Z,98609.79
2023-03-19T11:43:48.384Z,98601.78
2023-03-19T11:53:57.111Z,98591.08
2023-03-19T12:04:23.540Z,98590.02
2023-03-19T12:14:32.457Z,98581.63
2023-03-19T12:24:40.194Z,98572.04
2023-03-19T12:34:51.501Z,98564.30
2023-03-19T12:45:01.331Z,98565.89
2023-03-19T12:55:15.720Z,98552.33
2023-03-19T13:05:23.414Z,98546.58
2023-03-19T13:15:28.453Z,98540.20
2023-03-19T13:25:40.817Z,98524.29
2023-03-19T13:35:50.914Z,98528.05
2023-03-19T13:46:25.590Z,98529.41
2023-03-19T13:56:55.626Z,98522.46
2023-03-19T14:07:11.430Z,98508.45
2023-03-19T14:17:16.419Z,98503.11
2023-03-19T14:27:24.949Z,98502.61
2023-03-19T14:37:30.978Z,98498.06
2023-03-19T14:47:44.078Z,98500.27
2023-03-19T14:57:51.179Z,98501.58
2023-03-19T15:07:58.000Z,98498.36
2023-03-19T15:18:05.707Z,98503.50
2023-03-19T15:28:14.637Z,98502.71
2023-03-19T15:38:22.333Z,98501.19
2023-03-19T15:48:36.820Z,98506.67
2023-03-19T15:58:47.696Z,98515.73
2023-03-19T16:08:57.085Z,98522.80
2023-03-19T16:19:03.098Z,98528.17
2023-03-19T16:29:09.833Z,98526.00
2023-03-19T16:39:15.614Z,98534.75
2023-03-19T16:49:22.787Z,98537.05
2023-03-19T16:59:30.700Z,98541.52
2023-03-19T17:09:38.244Z,98552.65
2023-03-19T17:19:47.045Z,98565.36
2023-03-19T17:29:54.192Z,98562.30
2023-03-19T17:40:01.299Z,98570.68
2023-03-19T17:50:15.036Z,98566.95
2023-03-19T18:00:24.540Z,98573.45
2023-03-19T18:10:33.493Z,98569.10
2023-03-19T18:20:42.626Z,98568.45
2023-03-19T18:30:49.694Z,98576.77
2023-03-19T18:40:57.194Z,98570.02
2023-03-19T18:51:04.497Z,98573.34
2023-03-19T19:01:15.619Z,98579.23
2023-03-19T19:11:24.227Z,98580.30
2023-03-19T19:21:31.384Z,98573.84
2023-03-19T19:41:43.925Z,98580.32
2023-03-19T19:51:51.176Z,98582.58
2023-03-19T20:01:58.930Z,98581.23
2023-03-19T20:12:04.901Z,98578.33
2023-03-19T20:22:12.228Z,98583.91
2023-03-19T20:32:33.034Z,98577.79
2023-03-19T20:42:41.628Z,98583.14
2023-03-19T20:52:48.832Z,98584.41
2023-03-19T21:02:58.155Z,98574.89
2023-03-19T21:13:06.303Z,98575.89
2023-03-19T21:23:11.792Z,98569.27
2023-03-19T21:33:22.280Z,98568.98
2023-03-19T21:43:28.031Z,98555.45
2023-03-19T21:53:35.558Z,98554.34
2023-03-19T22:03:43.083Z,98558.07
2023-03-19T22:13:50.728Z,98561.20
2023-03-19T22:23:58.109Z,98567.36
2023-03-19T22:34:05.086Z,98557.66
2023-03-19T22:54:20.702Z,98547.14
2023-03-19T23:04:30.820Z,98546.05
2023-03-19T23:14:38.081Z,98546.98
2023-03-19T23:24:45.054Z,98545.84
2023-03-19T23:35:00.504Z,98545.28
2023-03-19T23:45:18.006Z,98536.77
2023-03-19T23:55:25.447Z,98527.17
